Time;durP1;ratioP1;P1;durP2;ratioP2;P2;SDS_P1;SDS_P2;PMS_P1;PMS_P2;Temp;Humidity;BMP_temperature;BMP_pressure;BME280_temperature;BME280_humidity;BME280_pressure;Samples;Min_cycle;Max_cycle;Signal;HPM_P1;HPM_P2
2024/01/06 00:01:41;;;;;;;42.50;19.25;;;4.20;99.90;;;6.19;100.00;99405.22;4952521;29;20122;-78
2024/01/06 00:04:07;;;;;;;42.17;20.20;;;4.20;99.90;;;6.22;100.00;99409.34;4931667;29;20460;-77
2024/01/06 00:06:33;;;;;;;42.88;21.13;;;4.20;99.90;;;6.16;100.00;99405.66;4953928;28;20038;-77
2024/01/06 00:08:59;;;;;;;43.22;19.20;;;4.20;99.90;;;6.12;100.00;99407.16;4953000;28;20031;-79
2024/01/06 00:11:25;;;;;;;43.47;19.50;;;4.20;99.90;;;6.17;100.00;99412.72;4954128;28;20031;-78
2024/01/06 00:13:50;;;;;;;42.58;20.70;;;4.20;99.90;;;6.23;100.00;99412.91;4969556;28;20423;-76
2024/01/06 00:16:20;;;;;;;38.72;19.20;;;4.20;99.90;;;6.12;100.00;99412.56;4949234;29;20048;-76
2024/01/06 00:18:47;;;;;;;38.45;18.10;;;4.20;99.90;;;6.11;100.00;99413.63;4952408;28;20074;-78
2024/01/06 00:21:13;;;;;;;39.13;19.55;;;4.20;99.90;;;6.03;100.00;99417.41;4954245;28;20053;-76
2024/01/06 00:23:41;;;;;;;38.22;18.52;;;4.20;99.90;;;6.10;100.00;99411.09;4952590;29;20114;-77
2024/01/06 00:26:08;;;;;;;37.13;19.15;;;4.20;99.90;;;6.17;100.00;99418.16;4953652;28;20035;-77
2024/01/06 00:28:34;;;;;;;39.13;19.35;;;4.20;99.90;;;6.10;100.00;99420.06;4967665;28;20372;-76
2024/01/06 00:30:59;;;;;;;40.42;18.77;;;4.20;99.90;;;6.13;100.00;99425.06;4952806;29;20166;-76
2024/01/06 00:33:25;;;;;;;41.92;19.67;;;4.10;99.90;;;6.14;100.00;99425.88;4953609;29;20051;-77
2024/01/06 00:35:51;;;;;;;40.60;19.13;;;4.20;99.90;;;6.10;100.00;99432.78;4950965;28;20031;-77
2024/01/06 00:38:17;;;;;;;39.03;19.08;;;4.20;99.90;;;6.07;100.00;99423.19;4952817;28;20106;-77
2024/01/06 00:40:43;;;;;;;38.08;18.75;;;4.20;99.90;;;6.21;100.00;99429.34;4967452;28;20038;-78
2024/01/06 00:43:08;;;;;;;35.00;17.35;;;4.20;99.90;;;6.30;100.00;99428.06;4951932;29;20035;-79
2024/01/06 00:45:34;;;;;;;33.15;18.27;;;4.20;99.90;;;6.02;100.00;99425.72;4953515;28;20387;-78
2024/01/06 00:48:00;;;;;;;38.95;19.08;;;4.20;99.90;;;6.11;100.00;99431.72;4952055;29;20099;-78
2024/01/06 00:50:32;;;;;;;37.40;18.98;;;4.20;99.90;;;6.23;100.00;99429.97;4952844;28;20406;-77
2024/01/06 00:52:58;;;;;;;39.38;18.30;;;4.20;99.90;;;6.14;100.00;99440.25;4950730;29;20491;-78
2024/01/06 00:55:27;;;;;;;37.80;18.48;;;4.20;99.90;;;6.19;100.00;99442.28;4952626;28;20039;-78
2024/01/06 00:57:55;;;;;;;32.40;16.13;;;4.20;99.90;;;5.97;100.00;99444.47;4952859;28;20035;-76
2024/01/06 01:00:21;;;;;;;38.58;17.90;;;4.20;99.90;;;6.03;100.00;99447.19;4952709;29;20066;-77
2024/01/06 01:02:49;;;;;;;39.53;17.77;;;4.10;99.90;;;6.11;100.00;99445.25;4952753;28;20028;-79
2024/01/06 01:05:15;;;;;;;35.55;18.58;;;4.10;99.90;;;6.02;100.00;99448.22;4966835;28;20051;-78
2024/01/06 01:07:40;;;;;;;37.30;18.02;;;4.10;99.90;;;6.07;100.00;99454.88;4950644;28;20050;-77
2024/01/06 01:10:06;;;;;;;39.67;18.67;;;4.10;99.90;;;6.07;100.00;99460.28;4951525;28;20043;-77
2024/01/06 01:12:32;;;;;;;35.60;17.58;;;4.10;99.90;;;6.04;100.00;99458.84;4952966;28;20038;-77
2024/01/06 01:14:58;;;;;;;33.83;17.48;;;4.10;99.90;;;5.98;100.00;99454.25;4953025;28;20034;-77
2024/01/06 01:17:24;;;;;;;41.40;18.13;;;4.10;99.90;;;5.87;100.00;99455.75;4952463;28;20410;-77
2024/01/06 01:19:50;;;;;;;37.30;17.90;;;4.00;99.90;;;5.90;100.00;99467.00;4952386;29;20028;-77
2024/01/06 01:22:16;;;;;;;39.83;18.85;;;4.00;99.90;;;5.82;100.00;99469.13;4951889;29;20043;-77
2024/01/06 01:24:42;;;;;;;40.72;18.25;;;4.00;99.90;;;5.88;100.00;99476.38;4952916;28;20039;-77
2024/01/06 01:27:08;;;;;;;36.72;17.35;;;4.00;99.90;;;5.85;100.00;99477.66;4951244;29;20047;-76
2024/01/06 01:29:34;;;;;;;38.92;17.73;;;4.00;99.90;;;5.86;100.00;99481.16;4947742;29;20488;-76
2024/01/06 01:32:00;;;;;;;38.60;17.52;;;4.00;99.90;;;5.84;100.00;99467.88;4952700;28;20129;-76
2024/01/06 01:34:26;;;;;;;36.70;17.25;;;4.00;99.90;;;5.96;100.00;99475.31;4952770;28;20047;-76
2024/01/06 01:36:52;;;;;;;36.13;18.20;;;4.00;99.90;;;5.71;100.00;99481.44;4952799;28;20368;-76
2024/01/06 01:39:17;;;;;;;38.22;18.08;;;4.00;99.90;;;5.81;100.00;99484.50;4947790;28;20047;-77
2024/01/06 01:41:43;;;;;;;40.13;18.10;;;4.00;99.90;;;5.73;100.00;99477.47;4951289;28;20031;-77
2024/01/06 01:44:09;;;;;;;41.08;18.65;;;4.00;99.90;;;5.74;100.00;99479.13;4949476;29;20446;-76
2024/01/06 01:46:35;;;;;;;41.72;19.05;;;4.00;99.90;;;5.58;100.00;99480.44;4950720;28;20573;-78
2024/01/06 01:49:03;;;;;;;40.88;18.33;;;4.00;99.90;;;5.55;100.00;99480.84;4945462;29;20043;-77
2024/01/06 01:51:35;;;;;;;41.58;18.85;;;3.90;99.90;;;5.69;100.00;99481.63;4949434;28;20041;-77
2024/01/06 01:54:06;;;;;;;44.72;18.90;;;3.90;99.90;;;5.67;100.00;99477.50;4962735;28;20054;-77
2024/01/06 01:56:36;;;;;;;43.40;19.50;;;3.90;99.90;;;5.65;100.00;99482.28;4950037;28;20067;-78
2024/01/06 01:59:10;;;;;;;44.08;18.63;;;3.90;99.90;;;5.70;100.00;99477.06;4952294;29;20049;-78
2024/01/06 02:01:40;;;;;;;42.75;19.10;;;3.90;99.90;;;5.64;100.00;99486.03;4950243;29;20495;-76
2024/01/06 02:04:06;;;;;;;42.47;18.27;;;3.90;99.90;;;5.75;100.00;99488.91;4967330;28;20398;-77
2024/01/06 02:06:32;;;;;;;39.83;17.30;;;3.90;99.90;;;5.78;100.00;99484.13;4966196;28;20039;-78
2024/01/06 02:08:58;;;;;;;48.05;19.20;;;3.90;99.90;;;5.81;100.00;99489.09;4948528;28;20046;-77
2024/01/06 02:11:24;;;;;;;45.22;20.27;;;3.90;99.90;;;5.81;100.00;99489.09;4952055;28;20070;-78
2024/01/06 02:13:49;;;;;;;41.58;18.58;;;3.90;99.90;;;5.72;100.00;99489.34;4951921;28;20039;-76
2024/01/06 02:16:15;;;;;;;41.95;17.63;;;3.90;99.90;;;5.62;100.00;99494.34;4950219;28;20051;-76
2024/01/06 02:18:41;;;;;;;40.42;17.77;;;3.90;99.90;;;5.81;100.00;99498.03;4951716;29;20143;-76
2024/01/06 02:21:07;;;;;;;43.67;18.45;;;3.90;99.90;;;5.76;100.00;99492.44;4950747;29;20039;-76
2024/01/06 02:23:36;;;;;;;44.50;17.85;;;3.90;99.90;;;5.88;100.00;99511.56;4951298;28;20428;-76
2024/01/06 02:26:03;;;;;;;40.85;17.25;;;3.90;99.90;;;5.77;100.00;99515.75;4951739;28;20066;-76
2024/01/06 02:28:28;;;;;;;40.97;18.08;;;3.90;99.90;;;5.60;100.00;99524.34;4952979;28;20506;-76
2024/01/06 02:30:54;;;;;;;44.28;18.38;;;3.90;99.90;;;5.62;100.00;99518.72;4949019;29;20176;-78
2024/01/06 02:33:20;;;;;;;45.35;17.58;;;3.80;99.90;;;5.43;100.00;99520.44;4951123;28;20053;-76
2024/01/06 02:35:46;;;;;;;40.72;18.60;;;3.80;99.90;;;5.42;100.00;99514.16;4950429;28;20063;-76
2024/01/06 02:38:12;;;;;;;46.70;17.92;;;3.80;99.90;;;5.34;100.00;99522.50;4951440;28;20036;-76
2024/01/06 02:40:38;;;;;;;48.70;19.10;;;3.80;99.90;;;5.25;100.00;99516.47;4951497;28;20043;-76
2024/01/06 02:43:04;;;;;;;43.35;18.52;;;3.80;99.90;;;5.36;100.00;99519.59;4951019;28;20039;-77
2024/01/06 02:45:30;;;;;;;44.60;18.95;;;3.80;99.90;;;5.63;100.00;99525.78;4947542;28;20031;-76
2024/01/06 02:47:55;;;;;;;51.47;19.60;;;3.80;99.90;;;5.78;100.00;99527.44;4950759;28;20542;-77
2024/01/06 02:50:22;;;;;;;43.85;18.27;;;3.80;99.90;;;5.85;100.00;99531.78;4965787;28;20039;-77
2024/01/06 02:52:47;;;;;;;43.10;18.58;;;3.80;99.90;;;5.98;100.00;99530.06;4949916;28;20901;-77
2024/01/06 02:55:14;;;;;;;53.55;19.92;;;3.90;99.90;;;5.85;100.00;99529.06;4965409;28;20043;-77
2024/01/06 02:57:40;;;;;;;46.03;19.13;;;3.90;99.90;;;5.82;100.00;99543.00;4954222;28;20125;-77
2024/01/06 03:00:08;;;;;;;46.45;20.10;;;3.90;99.90;;;5.74;100.00;99538.69;4951096;28;20031;-77
2024/01/06 03:02:35;;;;;;;43.08;17.85;;;3.90;99.90;;;5.83;100.00;99541.16;4946822;28;20141;-77
2024/01/06 03:05:01;;;;;;;45.80;18.55;;;3.80;99.90;;;5.48;100.00;99539.56;4951136;28;20086;-77
2024/01/06 03:07:27;;;;;;;42.78;18.67;;;3.80;99.90;;;5.78;100.00;99549.09;4951154;28;20102;-77
2024/01/06 03:09:53;;;;;;;47.13;18.70;;;3.80;99.90;;;5.74;100.00;99537.84;4950394;28;20479;-77
2024/01/06 03:12:18;;;;;;;46.70;18.85;;;3.80;99.90;;;5.80;100.00;99539.69;4950647;28;20039;-77
2024/01/06 03:14:44;;;;;;;42.95;19.45;;;3.80;99.90;;;5.77;100.00;99550.94;4951276;28;20395;-77
2024/01/06 03:17:12;;;;;;;48.80;19.23;;;3.80;99.90;;;5.79;100.00;99556.16;4950036;29;20035;-77
2024/01/06 03:19:39;;;;;;;48.38;19.33;;;3.80;99.90;;;5.73;100.00;99558.66;4950285;28;20039;-77
2024/01/06 03:22:05;;;;;;;48.38;19.55;;;3.80;99.90;;;5.84;100.00;99562.59;4950971;28;20035;-77
2024/01/06 03:24:31;;;;;;;50.80;19.58;;;3.80;99.90;;;5.81;100.00;99562.19;4950879;28;20166;-77
2024/01/06 03:26:56;;;;;;;43.38;19.08;;;3.80;99.90;;;5.85;100.00;99561.56;4949135;29;20902;-77
2024/01/06 03:29:22;;;;;;;45.35;18.25;;;3.80;99.90;;;5.80;100.00;99558.63;4963488;28;20098;-77
2024/01/06 03:31:48;;;;;;;48.42;20.23;;;3.80;99.90;;;5.75;100.00;99553.88;4949281;29;20050;-77
2024/01/06 03:34:14;;;;;;;47.78;19.58;;;3.80;99.90;;;5.71;100.00;99563.47;4940320;29;20048;-77
2024/01/06 03:36:40;;;;;;;45.60;19.35;;;3.80;99.90;;;5.75;100.00;99566.56;4923530;29;20376;-78
2024/01/06 03:39:06;;;;;;;53.67;20.02;;;3.80;99.90;;;5.56;100.00;99570.97;4950098;29;20055;-77
2024/01/06 03:41:32;;;;;;;48.38;18.92;;;3.80;99.90;;;5.60;100.00;99572.22;4951052;28;20031;-77
2024/01/06 03:43:59;;;;;;;48.63;18.27;;;3.80;99.90;;;5.61;100.00;99577.44;4950569;29;20054;-77
2024/01/06 03:46:25;;;;;;;48.17;18.52;;;3.70;99.90;;;5.68;100.00;99582.81;4950332;28;20039;-77
2024/01/06 03:48:51;;;;;;;48.03;19.98;;;3.80;99.90;;;5.72;100.00;99573.25;4950186;28;20039;-78
2024/01/06 03:51:16;;;;;;;52.85;21.05;;;3.70;99.90;;;5.72;100.00;99584.06;4943661;29;20043;-77
2024/01/06 03:53:42;;;;;;;49.05;19.30;;;3.70;99.90;;;5.63;100.00;99579.91;4950713;28;20083;-77
2024/01/06 03:56:08;;;;;;;48.13;19.05;;;3.70;99.90;;;5.80;100.00;99574.88;4965402;28;20063;-77
2024/01/06 03:58:34;;;;;;;48.15;18.95;;;3.70;99.90;;;5.84;100.00;99584.25;4945237;29;20110;-77
2024/01/06 04:01:00;;;;;;;51.75;20.25;;;3.70;99.90;;;5.79;100.00;99585.94;4950596;28;20038;-77
2024/01/06 04:03:26;;;;;;;45.28;19.60;;;3.70;99.90;;;5.75;100.00;99580.09;4950624;28;20039;-77
2024/01/06 04:05:52;;;;;;;44.38;18.98;;;3.70;99.90;;;5.70;100.00;99585.31;4966043;28;20490;-76
2024/01/06 04:08:18;;;;;;;42.80;17.85;;;3.70;99.90;;;5.76;100.00;99585.31;4938798;29;20040;-77
2024/01/06 04:10:44;;;;;;;47.53;19.15;;;3.70;99.90;;;5.78;100.00;99598.63;4949202;29;20039;-77
2024/01/06 04:13:15;;;;;;;44.47;17.90;;;3.70;99.90;;;5.59;100.00;99600.31;4949786;28;20035;-76
2024/01/06 04:15:41;;;;;;;44.47;17.75;;;3.60;99.90;;;5.58;100.00;99602.22;4951495;28;20035;-77
2024/01/06 04:18:06;;;;;;;45.17;17.88;;;3.60;99.90;;;5.48;100.00;99596.38;4968737;28;20039;-76
2024/01/06 04:20:33;;;;;;;42.60;18.35;;;3.60;99.90;;;5.69;100.00;99610.72;4954129;28;20054;-76
2024/01/06 04:22:59;;;;;;;48.17;18.38;;;3.60;99.90;;;5.67;100.00;99608.22;4953961;28;20039;-76
2024/01/06 04:25:25;;;;;;;38.58;17.25;;;3.60;99.90;;;5.68;100.00;99615.28;4954209;28;20047;-77
2024/01/06 04:27:50;;;;;;;41.53;18.60;;;3.60;99.90;;;5.59;100.00;99616.56;4953600;28;20050;-76
2024/01/06 04:30:17;;;;;;;49.80;19.02;;;3.60;99.90;;;5.57;100.00;99615.94;4952993;28;20043;-76
2024/01/06 04:32:43;;;;;;;43.72;18.40;;;3.60;99.90;;;5.53;100.00;99623.63;4953641;28;20047;-77
2024/01/06 04:35:10;;;;;;;51.67;19.73;;;3.60;99.90;;;5.47;100.00;99624.47;4953724;28;20512;-76
2024/01/06 04:37:36;;;;;;;47.72;18.45;;;3.50;99.90;;;5.50;100.00;99624.03;4952815;28;20067;-76
2024/01/06 04:40:02;;;;;;;48.05;19.17;;;3.50;99.90;;;5.53;100.00;99639.03;4953829;28;20078;-77
2024/01/06 04:42:28;;;;;;;49.35;18.80;;;3.50;99.90;;;5.60;100.00;99640.72;4953817;28;20126;-77
2024/01/06 04:44:54;;;;;;;46.60;18.50;;;3.50;99.90;;;5.60;100.00;99639.84;4952572;28;20038;-77
2024/01/06 04:47:19;;;;;;;47.85;17.30;;;3.50;99.90;;;5.51;100.00;99652.75;4946291;29;20051;-77
2024/01/06 04:49:45;;;;;;;44.40;18.98;;;3.50;99.90;;;5.69;100.00;99645.91;4952611;28;20497;-77
2024/01/06 04:52:11;;;;;;;50.45;19.02;;;3.50;99.90;;;5.68;100.00;99647.75;4953634;28;20035;-77
2024/01/06 04:54:37;;;;;;;48.17;18.67;;;3.50;99.90;;;5.77;100.00;99645.69;4949407;28;20459;-77
2024/01/06 04:57:04;;;;;;;50.38;19.50;;;3.60;99.90;;;5.77;100.00;99651.09;4962943;28;20039;-77
2024/01/06 04:59:30;;;;;;;49.70;18.83;;;3.60;99.90;;;5.73;100.00;99649.84;4953457;28;20031;-77
2024/01/06 05:01:58;;;;;;;45.22;19.30;;;3.60;99.90;;;5.69;100.00;99646.72;4952687;28;20130;-77
2024/01/06 05:04:24;;;;;;;44.70;18.55;;;3.60;99.90;;;5.70;100.00;99647.56;4953440;28;20031;-77
2024/01/06 05:06:51;;;;;;;48.13;18.98;;;3.60;99.90;;;5.80;100.00;99650.66;4953277;28;20468;-77
2024/01/06 05:09:18;;;;;;;43.80;18.08;;;3.60;99.90;;;5.81;100.00;99646.09;4968554;28;20395;-76
2024/01/06 05:11:44;;;;;;;46.00;18.98;;;3.60;99.90;;;5.75;100.00;99656.72;4952866;28;20067;-76
2024/01/06 05:14:10;;;;;;;46.90;18.27;;;3.60;99.90;;;5.82;100.00;99654.00;4952047;28;20471;-76
2024/01/06 05:16:36;;;;;;;42.88;17.92;;;3.60;99.90;;;5.83;100.00;99660.25;4949226;29;20031;-76
2024/01/06 05:19:02;;;;;;;46.40;17.48;;;3.60;99.90;;;5.83;100.00;99660.25;4953195;28;20525;-76
2024/01/06 05:21:29;;;;;;;43.80;17.17;;;3.60;99.90;;;5.79;100.00;99661.72;4950857;28;20414;-76
2024/01/06 05:23:55;;;;;;;45.10;18.05;;;3.60;99.90;;;5.80;100.00;99672.31;4952803;28;20042;-77
2024/01/06 05:26:20;;;;;;;44.60;17.02;;;3.60;99.90;;;5.80;100.00;99677.72;4953307;28;20043;-77
2024/01/06 05:28:46;;;;;;;42.45;16.98;;;3.60;99.90;;;5.67;100.00;99680.47;4937206;29;20047;-76
2024/01/06 05:31:12;;;;;;;41.10;17.92;;;3.60;99.90;;;5.82;100.00;99686.47;4949859;28;20055;-77
2024/01/06 05:33:38;;;;;;;38.83;16.40;;;3.60;99.90;;;5.67;100.00;99688.56;4952063;28;20054;-76
2024/01/06 05:36:04;;;;;;;40.97;16.80;;;3.60;99.90;;;5.67;100.00;99692.09;4952667;28;20055;-76
2024/01/06 05:38:30;;;;;;;39.03;16.23;;;3.60;99.90;;;5.73;100.00;99693.16;4948023;29;20035;-76
2024/01/06 05:40:56;;;;;;;38.83;17.40;;;3.60;99.90;;;5.71;100.00;99689.81;4952534;29;20105;-76
2024/01/06 05:43:21;;;;;;;36.65;15.13;;;3.60;99.90;;;5.61;100.00;99685.66;4950577;28;20039;-77
2024/01/06 05:45:47;;;;;;;43.25;17.60;;;3.60;99.90;;;5.47;100.00;99690.25;4952505;28;20550;-77
2024/01/06 05:48:13;;;;;;;45.22;17.85;;;3.50;99.90;;;5.40;100.00;99681.25;4951519;28;20506;-77
2024/01/06 05:50:39;;;;;;;45.65;17.60;;;3.50;99.90;;;5.56;100.00;99693.53;4952094;28;20126;-77
2024/01/06 05:53:06;;;;;;;41.58;17.17;;;3.50;99.90;;;5.50;100.00;99682.75;4952198;28;20126;-77
2024/01/06 05:55:32;;;;;;;40.42;16.73;;;3.50;99.90;;;5.50;100.00;99693.56;4952535;28;20043;-77
2024/01/06 05:57:57;;;;;;;44.50;17.13;;;3.50;99.90;;;5.40;100.00;99694.78;4951792;28;20031;-77
2024/01/06 06:00:23;;;;;;;42.05;16.63;;;3.50;99.90;;;5.45;100.00;99695.03;4950952;28;20061;-77
2024/01/06 06:02:49;;;;;;;42.00;16.92;;;3.50;99.90;;;5.51;100.00;99709.56;4951957;28;20058;-77
2024/01/06 06:05:15;;;;;;;39.35;16.40;;;3.50;99.90;;;5.39;100.00;99713.94;4950795;29;20047;-77
2024/01/06 06:07:40;;;;;;;43.88;16.65;;;3.50;99.90;;;5.50;100.00;99717.91;4951510;28;20066;-77
2024/01/06 06:10:11;;;;;;;49.25;18.17;;;3.50;99.90;;;5.45;100.00;99713.13;4951941;28;20046;-76
2024/01/06 06:12:37;;;;;;;43.53;17.05;;;3.50;99.90;;;5.42;100.00;99729.75;4952098;28;20068;-77
2024/01/06 06:15:05;;;;;;;40.33;16.15;;;3.50;99.90;;;5.42;100.00;99730.56;4951828;28;20458;-77
2024/01/06 06:17:32;;;;;;;46.53;17.75;;;3.50;99.90;;;5.22;100.00;99725.13;4951790;28;20406;-76
2024/01/06 06:19:59;;;;;;;40.78;16.90;;;3.40;99.90;;;5.39;100.00;99738.28;4961840;28;20028;-76
2024/01/06 06:22:30;;;;;;;44.03;16.90;;;3.40;99.90;;;5.30;100.00;99737.63;4947110;28;20054;-76
2024/01/06 06:25:02;;;;;;;45.97;17.17;;;3.40;99.90;;;5.29;100.00;99744.09;4951733;28;20078;-77
2024/01/06 06:27:28;;;;;;;41.25;15.63;;;3.40;99.90;;;5.26;100.00;99745.31;4951815;28;20402;-77
2024/01/06 06:29:56;;;;;;;43.22;17.70;;;3.40;99.90;;;5.32;100.00;99758.06;4950501;28;20035;-77
2024/01/06 06:32:21;;;;;;;;;;;3.40;99.90;;;5.14;100.00;99760.47;4951979;28;20070;-77
2024/01/06 06:34:47;;;;;;;41.25;16.17;;;3.40;99.90;;;5.31;100.00;99759.09;4965934;28;19962;-76
2024/01/06 06:37:13;;;;;;;40.28;15.18;;;3.40;99.90;;;5.26;100.00;99764.25;4951777;29;20098;-76
2024/01/06 06:39:38;;;;;;;40.67;17.13;;;3.50;99.90;;;5.35;100.00;99772.19;4950839;28;20050;-76
2024/01/06 06:42:04;;;;;;;46.35;17.25;;;3.50;99.90;;;5.21;100.00;99782.97;4951660;28;20039;-76
2024/01/06 06:44:30;;;;;;;49.65;17.90;;;3.50;99.90;;;5.13;100.00;99773.16;4950002;28;20051;-76
2024/01/06 06:46:56;;;;;;;45.28;17.88;;;3.40;99.90;;;4.94;100.00;99790.97;4949393;28;20102;-76
2024/01/06 06:49:22;;;;;;;47.17;17.35;;;3.50;99.90;;;5.22;100.00;99778.41;4949029;28;20061;-76
2024/01/06 06:51:48;;;;;;;42.95;16.98;;;3.50;99.90;;;5.11;100.00;99794.16;4949574;28;20475;-76
2024/01/06 06:54:15;;;;;;;42.28;17.80;;;3.40;99.90;;;5.50;100.00;99799.91;4949299;28;20126;-77
2024/01/06 06:56:44;;;;;;;46.93;18.23;;;3.50;99.90;;;5.39;100.00;99804.03;4964679;28;20038;-79
2024/01/06 06:59:10;;;;;;;44.28;17.75;;;3.50;99.90;;;5.45;100.00;99796.97;4949711;28;20858;-76
2024/01/06 07:01:37;;;;;;;46.33;16.80;;;3.50;99.90;;;5.41;100.00;99806.53;4950987;28;20043;-78
2024/01/06 07:04:03;;;;;;;45.28;17.63;;;3.50;99.90;;;5.29;100.00;99801.72;4965952;28;20040;-78
2024/01/06 07:06:30;;;;;;;47.10;16.55;;;3.50;99.90;;;5.43;100.00;99810.69;4950789;28;20042;-78
2024/01/06 07:08:56;;;;;;;41.10;16.60;;;3.50;99.90;;;5.29;100.00;99801.72;4951292;28;20453;-77
2024/01/06 07:11:22;;;;;;;44.83;17.52;;;3.50;99.90;;;5.18;100.00;99810.41;4951417;28;20068;-77
2024/01/06 07:13:49;;;;;;;46.53;17.65;;;3.50;99.90;;;5.30;100.00;99808.81;4949963;28;20179;-77
2024/01/06 07:16:15;;;;;;;46.45;18.05;;;3.40;99.90;;;5.37;100.00;99818.81;4951381;28;20491;-77
2024/01/06 07:18:41;;;;;;;42.80;17.00;;;3.40;99.90;;;5.52;100.00;99821.34;4951277;28;20031;-78
2024/01/06 07:21:07;;;;;;;43.30;17.20;;;3.40;99.90;;;5.53;100.00;99813.03;4950313;28;20146;-78
2024/01/06 07:23:33;;;;;;;41.15;15.55;;;3.50;99.90;;;5.59;100.00;99822.19;4966779;28;20086;-78
2024/01/06 07:25:59;;;;;;;44.50;17.42;;;3.50;99.90;;;5.63;100.00;99836.16;4951529;28;20447;-77
2024/01/06 07:28:25;;;;;;;47.15;18.55;;;3.50;99.90;;;5.52;100.00;99835.69;4951090;28;20044;-76
2024/01/06 07:30:50;;;;;;;50.05;19.45;;;3.50;99.90;;;5.38;100.00;99834.00;4951154;28;20050;-79
2024/01/06 07:33:16;;;;;;;51.60;19.85;;;3.60;99.90;;;5.40;100.00;99837.34;4940789;28;20046;-78
2024/01/06 07:35:43;;;;;;;54.50;21.00;;;3.50;99.90;;;5.54;100.00;99846.34;4944625;29;20048;-76
2024/01/06 07:38:12;;;;;;;59.50;20.67;;;3.50;99.90;;;5.57;100.00;99851.34;4950798;28;20043;-77
2024/01/06 07:40:38;;;;;;;54.65;20.25;;;3.50;99.90;;;5.42;100.00;99860.44;4945356;29;20050;-77
2024/01/06 07:43:04;;;;;;;57.80;20.98;;;3.50;99.90;;;5.41;100.00;99866.06;4950780;28;20035;-76
2024/01/06 07:45:31;;;;;;;55.60;21.23;;;3.50;99.90;;;5.42;100.00;99868.53;4951639;28;20039;-76
2024/01/06 07:47:58;;;;;;;57.03;21.10;;;3.50;99.90;;;5.31;100.00;99880.81;4951147;28;20039;-77
2024/01/06 07:50:24;;;;;;;63.65;21.95;;;3.50;99.90;;;5.35;100.00;99877.69;4951397;28;20452;-76
2024/01/06 07:52:49;;;;;;;61.47;21.73;;;3.50;99.90;;;5.05;100.00;99876.06;4954153;28;20082;-76
2024/01/06 07:55:15;;;;;;;58.70;21.63;;;3.50;99.90;;;5.20;100.00;99881.34;4954398;28;20046;-76
2024/01/06 07:57:42;;;;;;;56.90;20.88;;;3.40;99.90;;;5.33;100.00;99883.28;4954444;28;20487;-76
2024/01/06 08:00:09;;;;;;;61.75;21.48;;;3.50;99.90;;;5.35;100.00;99886.63;4954493;28;20068;-76
2024/01/06 08:02:43;;;;;;;65.50;22.42;;;3.50;99.90;;;5.24;100.00;99888.03;4954524;28;20035;-78
2024/01/06 08:05:09;;;;;;;61.92;21.70;;;3.50;99.90;;;4.98;100.00;99881.44;4953813;28;20042;-78
2024/01/06 08:07:35;;;;;;;60.03;20.52;;;3.40;99.90;;;5.22;100.00;99892.81;4937374;29;20383;-76
2024/01/06 08:10:04;;;;;;;59.50;20.85;;;3.40;99.90;;;5.21;100.00;99891.13;4968776;28;20031;-78
2024/01/06 08:12:30;;;;;;;65.75;21.00;;;3.40;99.90;;;5.12;100.00;99903.16;4948770;28;20094;-77
2024/01/06 08:14:56;;;;;;;56.28;20.73;;;3.40;99.90;;;5.25;100.00;99902.41;4962690;28;20038;-77
2024/01/06 08:17:22;;;;;;;64.60;20.88;;;3.40;99.90;;;5.09;100.00;99909.78;4953767;29;20032;-76
2024/01/06 08:19:47;;;;;;;56.28;19.52;;;3.40;99.90;;;5.16;100.00;99916.06;4953201;28;20364;-77
2024/01/06 08:22:13;;;;;;;57.03;19.75;;;3.40;99.90;;;5.20;100.00;99919.22;4954709;28;20031;-76
2024/01/06 08:24:39;;;;;;;52.55;19.55;;;3.40;99.90;;;5.23;100.00;99920.69;4953888;28;20031;-76
2024/01/06 08:27:05;;;;;;;50.50;19.52;;;3.40;99.90;;;5.14;100.00;99922.72;4954178;28;20041;-76
2024/01/06 08:29:31;;;;;;;56.30;19.90;;;3.40;99.90;;;5.23;100.00;99926.09;4952869;29;20035;-77
2024/01/06 08:31:57;;;;;;;51.60;19.95;;;3.40;99.90;;;4.99;100.00;99934.47;4954299;28;20036;-76
2024/01/06 08:34:23;;;;;;;60.30;20.35;;;3.30;99.90;;;5.29;100.00;99942.34;4950052;29;20344;-78
2024/01/06 08:36:49;;;;;;;49.05;18.50;;;3.40;99.90;;;5.21;100.00;99939.81;4951358;29;20031;-76
2024/01/06 08:39:14;;;;;;;50.72;18.70;;;3.40;99.90;;;5.36;100.00;99955.09;4954901;28;20047;-77
2024/01/06 08:41:40;;;;;;;49.53;17.33;;;3.40;99.90;;;5.22;100.00;99955.00;4953258;29;20549;-77
2024/01/06 08:44:06;;;;;;;48.75;18.52;;;3.40;99.90;;;5.15;100.00;99951.44;4956365;28;20069;-80
2024/01/06 08:46:31;;;;;;;51.17;18.50;;;3.40;99.90;;;5.14;100.00;99968.69;4953585;28;20039;-77
2024/01/06 08:48:57;;;;;;;49.97;18.35;;;3.40;99.90;;;4.99;100.00;99968.81;4953053;28;20042;-77
2024/01/06 08:51:24;;;;;;;44.25;17.48;;;3.40;99.90;;;5.12;100.00;99973.47;4953779;28;20102;-77
2024/01/06 08:53:49;;;;;;;45.08;17.80;;;3.40;99.90;;;4.86;100.00;99974.94;4952730;28;20455;-77
2024/01/06 08:56:17;;;;;;;45.35;18.15;;;3.30;99.90;;;4.82;100.00;99976.38;4953644;28;20134;-77
2024/01/06 08:58:43;;;;;;;;;;;3.30;99.90;;;4.92;100.00;99984.97;4953807;28;20047;-77
2024/01/06 09:01:09;;;;;;;44.58;17.23;;;3.30;99.90;;;4.88;100.00;99983.69;4947562;28;19925;-76
2024/01/06 09:03:35;;;;;;;41.33;16.60;;;3.30;99.90;;;4.93;100.00;99992.03;4952108;29;20086;-77
2024/01/06 09:06:01;;;;;;;41.65;16.90;;;3.30;99.90;;;4.99;100.00;99996.66;4948704;29;20035;-77
2024/01/06 09:08:26;;;;;;;41.45;17.83;;;3.30;99.90;;;4.99;100.00;100002.06;4950648;28;20044;-77
2024/01/06 09:10:56;;;;;;;43.38;16.58;;;3.30;99.90;;;4.84;100.00;100002.16;4950935;29;20369;-75
2024/01/06 09:13:23;;;;;;;43.65;16.70;;;3.30;99.90;;;5.04;100.00;100018.56;4953684;28;20561;-75
2024/01/06 09:15:51;;;;;;;42.55;16.60;;;3.30;99.90;;;5.12;100.00;100016.72;4935989;28;20496;-75
2024/01/06 09:18:16;;;;;;;43.30;17.15;;;3.30;99.90;;;5.09;100.00;100022.53;4953164;28;20090;-75
2024/01/06 09:20:42;;;;;;;36.42;15.55;;;3.30;99.90;;;5.29;100.00;100028.09;4952561;29;20078;-75
2024/01/06 09:23:08;;;;;;;41.40;17.25;;;3.30;99.90;;;5.26;100.00;100017.66;4952788;28;20031;-75
2024/01/06 09:25:33;;;;;;;41.60;16.58;;;3.30;99.90;;;5.30;100.00;100027.91;4953282;28;20031;-77
2024/01/06 09:28:00;;;;;;;43.72;17.02;;;3.30;99.90;;;5.41;100.00;100039.19;4953117;28;20042;-76
2024/01/06 09:30:27;;;;;;;44.53;17.67;;;3.40;99.90;;;5.02;100.00;100036.81;4948286;29;20375;-76
2024/01/06 09:32:53;;;;;;;43.17;16.55;;;3.30;99.90;;;5.22;100.00;100046.16;4967943;28;20424;-76
2024/01/06 09:35:18;;;;;;;43.58;17.08;;;3.30;99.90;;;5.11;100.00;100045.63;4952890;28;20050;-76
2024/01/06 09:37:44;;;;;;;42.35;17.27;;;3.30;99.90;;;5.15;100.00;100037.97;4951952;28;20050;-76
2024/01/06 09:40:15;;;;;;;44.80;17.38;;;3.40;99.90;;;5.35;100.00;100050.81;4952434;28;20039;-77
2024/01/06 09:42:41;;;;;;;44.88;18.67;;;3.40;99.90;;;5.41;100.00;100058.13;4952444;28;20121;-76
2024/01/06 09:45:08;;;;;;;45.83;18.02;;;3.40;99.90;;;5.43;100.00;100056.06;4952322;28;20123;-77
2024/01/06 09:47:35;;;;;;;45.55;18.42;;;3.40;99.90;;;5.16;100.00;100059.38;4952229;28;20043;-77
2024/01/06 09:50:04;;;;;;;45.83;17.98;;;3.40;99.90;;;5.41;100.00;100058.13;4950397;28;20043;-78
2024/01/06 09:52:33;;;;;;;47.22;17.98;;;3.40;99.90;;;5.48;100.00;100059.00;4950320;28;20071;-77
2024/01/06 09:55:02;;;;;;;45.95;18.05;;;3.50;99.90;;;5.32;100.00;100069.13;4950014;28;20034;-77
2024/01/06 09:57:27;;;;;;;47.92;19.70;;;3.50;99.90;;;5.22;100.00;100041.56;4950052;28;20115;-77
2024/01/06 09:59:55;;;;;;;45.63;19.05;;;3.50;99.90;;;5.11;100.00;100069.16;4950508;28;20114;-77
2024/01/06 10:02:22;;;;;;;45.20;17.27;;;3.50;99.90;;;5.40;100.00;100064.59;4950214;28;20059;-77
2024/01/06 10:04:48;;;;;;;48.55;18.17;;;3.50;99.90;;;5.25;100.00;100065.50;4952998;28;20046;-77
2024/01/06 10:07:14;;;;;;;48.53;17.38;;;3.50;99.90;;;5.10;100.00;100072.88;4951531;29;20047;-77
2024/01/06 10:09:43;;;;;;;50.22;19.15;;;3.50;99.90;;;5.27;100.00;100070.72;4952128;29;20055;-77